createdAt,value
2019-05-01T00:01:50.766Z,9.40
2019-05-01T00:04:34.179Z,9.30
2019-05-01T00:07:07.194Z,9.30
2019-05-01T00:09:37.398Z,9.20
2019-05-01T00:12:07.582Z,9.00
2019-05-01T00:14:38.190Z,9.00
2019-05-01T00:17:08.490Z,9.00
2019-05-01T00:19:38.765Z,9.00
2019-05-01T00:22:09.078Z,9.00
2019-05-01T00:24:39.293Z,9.00
2019-05-01T00:27:09.612Z,9.00
2019-05-01T00:29:39.975Z,9.00
2019-05-01T00:32:10.226Z,8.90
2019-05-01T00:34:40.703Z,8.80
2019-05-01T00:37:10.970Z,8.80
2019-05-01T00:39:41.264Z,8.80
2019-05-01T00:42:11.549Z,8.80
2019-05-01T00:44:41.898Z,8.90
2019-05-01T00:47:12.105Z,8.80
2019-05-01T00:49:42.297Z,8.80
2019-05-01T00:52:13.777Z,8.80
2019-05-01T00:54:46.327Z,8.80
2019-05-01T00:57:18.179Z,8.70
2019-05-01T01:00:04.597Z,8.70
2019-05-01T01:02:40.058Z,8.70
2019-05-01T01:05:10.358Z,8.70
2019-05-01T01:07:40.629Z,8.60
2019-05-01T01:10:10.878Z,8.60
2019-05-01T01:12:41.058Z,8.60
2019-05-01T01:15:11.425Z,8.60
2019-05-01T01:17:41.641Z,8.60
2019-05-01T01:20:11.875Z,8.60
2019-05-01T01:22:42.118Z,8.60
2019-05-01T01:25:12.691Z,8.60
2019-05-01T01:27:42.870Z,8.60
2019-05-01T01:30:14.706Z,8.50
2019-05-01T01:32:45.153Z,8.50
2019-05-01T01:35:15.359Z,8.50
2019-05-01T01:37:45.550Z,8.50
2019-05-01T01:40:15.751Z,8.40
2019-05-01T01:42:48.510Z,8.40
2019-05-01T01:45:37.762Z,8.40
2019-05-01T01:48:09.597Z,8.40
2019-05-01T01:50:43.231Z,8.30
2019-05-01T01:53:15.366Z,8.30
2019-05-01T01:55:45.730Z,8.20
2019-05-01T01:58:16.323Z,8.20
2019-05-01T02:00:50.939Z,8.20
2019-05-01T02:03:22.788Z,8.20
2019-05-01T02:05:54.157Z,8.20
2019-05-01T02:08:24.358Z,8.10
2019-05-01T02:10:54.563Z,8.10
2019-05-01T02:13:24.888Z,8.10
2019-05-01T02:15:55.158Z,8.00
2019-05-01T02:18:25.370Z,7.90
2019-05-01T02:20:55.648Z,8.00
2019-05-01T02:23:25.832Z,8.00
2019-05-01T02:25:56.101Z,8.00
2019-05-01T02:28:44.063Z,7.90
2019-05-01T02:31:30.582Z,7.80
2019-05-01T02:34:00.823Z,7.90
2019-05-01T02:36:31.025Z,7.80
2019-05-01T02:39:01.215Z,7.80
2019-05-01T02:41:34.666Z,7.80
2019-05-01T02:44:10.339Z,7.80
2019-05-01T02:46:42.491Z,7.90
2019-05-01T02:49:15.930Z,7.80
2019-05-01T02:51:46.405Z,7.70
2019-05-01T02:54:16.592Z,7.70
2019-05-01T02:56:51.161Z,7.80
2019-05-01T02:59:21.421Z,7.70
2019-05-01T03:01:51.640Z,7.70
2019-05-01T03:04:21.814Z,7.60
2019-05-01T03:06:52.104Z,7.70
2019-05-01T03:09:22.432Z,7.70
2019-05-01T03:11:52.642Z,7.60
2019-05-01T03:15:00.831Z,7.60
2019-05-01T03:17:35.489Z,7.60
2019-05-01T03:20:14.330Z,7.60
2019-05-01T03:22:48.927Z,7.50
2019-05-01T03:25:19.117Z,7.40
2019-05-01T03:27:49.333Z,7.50
2019-05-01T03:30:19.596Z,7.50
2019-05-01T03:32:49.876Z,7.50
2019-05-01T03:35:20.063Z,7.50
2019-05-01T03:37:50.543Z,7.50
2019-05-01T03:40:20.739Z,7.50
2019-05-01T03:42:52.043Z,7.60
2019-05-01T03:45:22.291Z,7.70
2019-05-01T03:47:52.527Z,7.80
2019-05-01T03:50:22.767Z,8.00
2019-05-01T03:52:53.852Z,8.00
2019-05-01T03:55:24.130Z,8.20
2019-05-01T03:57:54.458Z,8.30
2019-05-01T04:00:26.343Z,8.50
2019-05-01T04:03:14.658Z,8.70
2019-05-01T04:05:44.851Z,9.00
2019-05-01T04:08:15.071Z,8.90
2019-05-01T04:10:45.887Z,9.00
2019-05-01T04:13:16.098Z,9.10
2019-05-01T04:16:01.778Z,9.10
2019-05-01T04:18:32.047Z,9.10
2019-05-01T04:21:02.240Z,9.40
2019-05-01T04:23:32.934Z,9.30
2019-05-01T04:26:03.126Z,9.40
2019-05-01T04:28:46.957Z,9.60
2019-05-01T04:31:28.921Z,9.80
2019-05-01T04:34:14.624Z,9.80
2019-05-01T04:37:02.712Z,9.70
2019-05-01T04:39:32.911Z,9.80
2019-05-01T04:42:03.192Z,9.90
2019-05-01T04:44:33.395Z,10.00
2019-05-01T04:47:04.852Z,10.20
2019-05-01T04:49:35.074Z,10.30
2019-05-01T04:52:05.267Z,10.30
2019-05-01T04:54:35.544Z,10.40
2019-05-01T04:57:05.735Z,10.50
2019-05-01T04:59:35.955Z,10.60
2019-05-01T05:02:07.926Z,10.70
2019-05-01T05:04:38.138Z,10.90
2019-05-01T05:07:08.340Z,11.00
2019-05-01T05:09:40.186Z,11.10
2019-05-01T05:12:12.158Z,11.20
2019-05-01T05:14:44.006Z,11.40
2019-05-01T05:17:18.619Z,11.30
2019-05-01T05:19:48.826Z,11.60
2019-05-01T05:22:19.091Z,11.60
2019-05-01T05:24:49.415Z,11.60
2019-05-01T05:27:19.977Z,11.60
2019-05-01T05:29:49.996Z,11.80
2019-05-01T05:32:20.269Z,11.90
2019-05-01T05:34:50.491Z,12.00
2019-05-01T05:37:24.271Z,12.20
2019-05-01T05:39:54.478Z,12.50
2019-05-01T05:42:24.693Z,12.30
2019-05-01T05:44:54.902Z,11.90
2019-05-01T05:47:25.557Z,12.10
2019-05-01T05:49:56.047Z,12.20
2019-05-01T05:52:34.086Z,12.50
2019-05-01T05:55:24.283Z,12.60
2019-05-01T05:57:56.587Z,12.80
2019-05-01T06:00:54.140Z,13.00
2019-05-01T06:03:35.005Z,13.30
2019-05-01T06:06:14.889Z,13.20
2019-05-01T06:08:45.139Z,13.30
2019-05-01T06:11:34.030Z,13.60
2019-05-01T06:14:26.922Z,13.90
2019-05-01T06:17:28.544Z,14.50
2019-05-01T06:20:00.719Z,15.00
2019-05-01T06:22:32.564Z,15.40
2019-05-01T06:25:14.195Z,15.90
2019-05-01T06:27:39.580Z,16.10
2019-05-01T06:30:12.517Z,16.80
2019-05-01T06:32:42.827Z,16.70
2019-05-01T06:35:13.060Z,17.00
2019-05-01T06:38:02.359Z,17.20
2019-05-01T06:40:41.754Z,17.10
2019-05-01T06:43:20.124Z,17.50
2019-05-01T06:46:12.109Z,18.60
2019-05-01T06:49:02.849Z,19.40
2019-05-01T06:51:35.463Z,21.10
2019-05-01T06:54:11.477Z,21.20
2019-05-01T06:56:41.090Z,21.00
2019-05-01T06:59:11.410Z,20.70
2019-05-01T07:01:41.634Z,20.50
2019-05-01T07:04:14.075Z,19.40
2019-05-01T07:06:43.848Z,18.90
2019-05-01T07:09:27.075Z,19.80
2019-05-01T07:11:47.476Z,21.90
2019-05-01T07:14:18.067Z,23.80
2019-05-01T07:16:48.307Z,24.80
2019-05-01T07:19:20.897Z,25.60
2019-05-01T07:21:51.196Z,25.40
2019-05-01T07:24:24.065Z,25.40
2019-05-01T07:26:53.422Z,25.40
2019-05-01T07:29:26.205Z,26.70
2019-05-01T07:31:56.483Z,27.10
2019-05-01T07:34:27.443Z,26.40
2019-05-01T07:36:59.520Z,26.00
2019-05-01T07:39:32.560Z,24.80
2019-05-01T07:42:20.197Z,23.20
2019-05-01T07:44:56.458Z,22.10
2019-05-01T07:47:30.502Z,21.30
2019-05-01T07:50:01.464Z,20.90
2019-05-01T07:52:31.681Z,20.40
2019-05-01T07:55:01.881Z,20.00
2019-05-01T07:57:34.457Z,20.00
2019-05-01T08:00:10.366Z,19.80
2019-05-01T08:02:40.618Z,19.70
2019-05-01T08:05:11.775Z,19.60
2019-05-01T08:07:41.473Z,19.30
2019-05-01T08:10:11.470Z,19.40
2019-05-01T08:12:41.690Z,19.10
2019-05-01T08:15:12.959Z,18.40
2019-05-01T08:17:48.874Z,18.00
2019-05-01T08:20:18.413Z,17.90
2019-05-01T08:22:48.630Z,18.10
2019-05-01T08:25:18.809Z,17.80
2019-05-01T08:27:58.137Z,18.30
2019-05-01T08:30:30.039Z,18.90
2019-05-01T08:33:09.894Z,19.30
2019-05-01T08:35:39.930Z,19.80
2019-05-01T08:38:10.240Z,20.20
2019-05-01T08:40:40.454Z,19.70
2019-05-01T08:43:13.696Z,20.10
2019-05-01T08:45:59.186Z,20.30
2019-05-01T08:48:43.158Z,20.10
2019-05-01T08:51:13.446Z,20.00
2019-05-01T08:53:43.715Z,19.30
2019-05-01T08:56:17.130Z,19.00
2019-05-01T08:58:49.462Z,19.40
2019-05-01T09:01:18.901Z,19.30
2019-05-01T09:03:49.636Z,19.80
2019-05-01T09:06:33.765Z,20.20
2019-05-01T09:08:53.329Z,20.50
2019-05-01T09:11:23.571Z,20.50
2019-05-01T09:13:54.594Z,20.40
2019-05-01T09:16:28.311Z,20.40
2019-05-01T09:18:58.258Z,20.60
2019-05-01T09:21:28.551Z,20.80
2019-05-01T09:23:58.783Z,20.70
2019-05-01T09:26:35.920Z,20.30
2019-05-01T09:29:16.024Z,20.60
2019-05-01T09:31:45.736Z,20.50
2019-05-01T09:34:19.230Z,20.40
2019-05-01T09:36:47.854Z,20.90
2019-05-01T09:39:19.807Z,21.50
2019-05-01T09:41:50.090Z,22.10
2019-05-01T09:44:20.379Z,22.90
2019-05-01T09:46:50.656Z,23.70
2019-05-01T09:49:21.811Z,24.20
2019-05-01T09:51:59.493Z,24.40
2019-05-01T09:54:31.359Z,24.30
2019-05-01T09:57:02.335Z,24.10
2019-05-01T09:59:32.616Z,24.60
2019-05-01T10:02:07.386Z,24.60
2019-05-01T10:04:35.003Z,24.80
2019-05-01T10:07:07.151Z,25.50
2019-05-01T10:09:37.384Z,25.60
2019-05-01T10:12:11.527Z,25.60
2019-05-01T10:14:39.509Z,25.20
2019-05-01T10:17:09.718Z,25.20
2019-05-01T10:19:39.959Z,25.30
2019-05-01T10:22:10.144Z,25.00
2019-05-01T10:24:40.478Z,24.60
2019-05-01T10:27:13.201Z,24.20
2019-05-01T10:30:01.496Z,23.60
2019-05-01T10:32:42.315Z,23.40
2019-05-01T10:35:19.198Z,22.80
2019-05-01T10:37:48.845Z,22.60
2019-05-01T10:40:22.084Z,22.20
2019-05-01T10:42:51.280Z,21.90
2019-05-01T10:45:21.559Z,22.20
2019-05-01T10:47:51.751Z,23.00
2019-05-01T10:50:21.971Z,24.50
2019-05-01T10:52:52.230Z,26.90
2019-05-01T10:55:22.471Z,29.30
2019-05-01T10:57:52.667Z,31.30
2019-05-01T11:00:23.214Z,31.20
2019-05-01T11:02:53.491Z,30.60
2019-05-01T11:05:23.709Z,29.50
2019-05-01T11:07:53.890Z,28.10
2019-05-01T11:10:24.188Z,27.00
2019-05-01T11:12:54.373Z,26.40
2019-05-01T11:15:24.610Z,26.30
2019-05-01T11:17:57.721Z,25.60
2019-05-01T11:20:29.547Z,25.00
2019-05-01T11:22:59.758Z,24.90
2019-05-01T11:25:30.022Z,25.20
2019-05-01T11:28:00.315Z,24.90
2019-05-01T11:30:30.540Z,24.90
2019-05-01T11:33:02.390Z,25.70
2019-05-01T11:35:51.390Z,26.40
2019-05-01T11:38:24.226Z,27.00
2019-05-01T11:40:56.126Z,27.30
2019-05-01T11:43:26.323Z,27.90
2019-05-01T11:45:56.525Z,28.30
2019-05-01T11:48:30.229Z,28.60
2019-05-01T11:50:58.793Z,29.00
2019-05-01T11:53:29.078Z,29.20
2019-05-01T11:55:59.314Z,29.70
2019-05-01T11:58:29.589Z,30.40
2019-05-01T12:01:01.556Z,30.70
2019-05-01T12:03:32.244Z,29.40
2019-05-01T12:06:02.633Z,29.40
2019-05-01T12:08:32.883Z,29.60
2019-05-01T12:11:04.747Z,29.70
2019-05-01T12:13:43.480Z,30.00
2019-05-01T12:16:08.624Z,30.00
2019-05-01T12:18:38.834Z,29.70
2019-05-01T12:21:09.082Z,29.80
2019-05-01T12:23:39.306Z,29.30
2019-05-01T12:26:09.498Z,28.90
2019-05-01T12:28:39.712Z,28.80
2019-05-01T12:31:09.922Z,28.60
2019-05-01T12:33:40.211Z,28.20
2019-05-01T12:36:10.395Z,27.90
2019-05-01T12:38:40.622Z,27.40
2019-05-01T12:41:19.059Z,26.80
2019-05-01T12:43:49.267Z,26.70
2019-05-01T12:46:38.462Z,26.20
2019-05-01T12:49:08.680Z,25.70
2019-05-01T12:51:41.002Z,25.40
2019-05-01T12:54:15.109Z,25.80
2019-05-01T12:56:58.755Z,26.20
2019-05-01T12:59:29.763Z,26.30
2019-05-01T13:01:59.988Z,26.30
2019-05-01T13:04:30.574Z,25.60
2019-05-01T13:07:00.582Z,24.90
2019-05-01T13:09:30.803Z,24.90
2019-05-01T13:12:01.347Z,24.50
2019-05-01T13:14:31.582Z,24.90
2019-05-01T13:17:01.779Z,25.30
2019-05-01T13:19:31.999Z,25.00
2019-05-01T13:22:02.202Z,25.10
2019-05-01T13:24:32.403Z,25.10
2019-05-01T13:27:20.375Z,25.40
2019-05-01T13:29:55.003Z,25.20
2019-05-01T13:32:29.634Z,25.00
2019-05-01T13:34:59.850Z,24.90
2019-05-01T13:37:30.049Z,25.00
2019-05-01T13:40:00.255Z,24.90
2019-05-01T13:42:30.463Z,25.10
2019-05-01T13:45:00.678Z,25.00
2019-05-01T13:47:31.447Z,24.90
2019-05-01T13:50:01.645Z,25.10
2019-05-01T13:52:31.865Z,25.20
2019-05-01T13:55:02.147Z,25.20
2019-05-01T13:57:32.500Z,25.10
2019-05-01T14:00:03.126Z,24.60
2019-05-01T14:02:35.110Z,24.60
2019-05-01T14:05:05.318Z,24.50
2019-05-01T14:07:37.263Z,24.50
2019-05-01T14:10:07.842Z,24.20
2019-05-01T14:12:38.349Z,24.30
2019-05-01T14:15:08.573Z,24.20
2019-05-01T14:17:38.834Z,24.10
2019-05-01T14:20:22.715Z,24.20
2019-05-01T14:23:10.884Z,24.40
2019-05-01T14:25:59.078Z,24.30
2019-05-01T14:28:29.304Z,24.30
2019-05-01T14:30:59.610Z,24.50
2019-05-01T14:33:29.966Z,24.50
2019-05-01T14:36:00.178Z,24.30
2019-05-01T14:38:30.387Z,24.00
2019-05-01T14:41:00.691Z,23.80
2019-05-01T14:43:31.800Z,23.50
2019-05-01T14:46:02.048Z,23.10
2019-05-01T14:48:32.317Z,22.90
2019-05-01T14:51:02.589Z,22.90
2019-05-01T14:53:32.866Z,23.00
2019-05-01T14:56:03.074Z,23.40
2019-05-01T14:58:33.295Z,23.40
2019-05-01T15:01:03.510Z,23.60
2019-05-01T15:03:33.707Z,23.50
2019-05-01T15:06:03.925Z,23.30
2019-05-01T15:08:34.179Z,23.40
2019-05-01T15:11:04.391Z,23.60
2019-05-01T15:13:42.422Z,23.40
2019-05-01T15:16:14.319Z,23.60
2019-05-01T15:18:46.261Z,23.70
2019-05-01T15:21:16.466Z,23.50
2019-05-01T15:23:53.395Z,23.50
2019-05-01T15:26:18.637Z,23.70
2019-05-01T15:28:48.955Z,23.20
2019-05-01T15:31:19.274Z,23.10
2019-05-01T15:33:49.554Z,22.90
2019-05-01T15:36:19.783Z,23.00
2019-05-01T15:38:50.052Z,23.20
2019-05-01T15:41:38.261Z,23.50
2019-05-01T15:44:18.943Z,24.10
2019-05-01T15:46:49.218Z,23.80
2019-05-01T15:49:19.411Z,23.70
2019-05-01T15:51:49.637Z,23.60
2019-05-01T15:54:19.817Z,23.90
2019-05-01T15:56:50.057Z,23.90
2019-05-01T15:59:20.273Z,24.00
2019-05-01T16:01:50.543Z,23.80
2019-05-01T16:04:20.779Z,23.90
2019-05-01T16:06:51.008Z,23.60
2019-05-01T16:09:21.234Z,23.60
2019-05-01T16:12:09.590Z,23.50
2019-05-01T16:14:39.839Z,23.00
2019-05-01T16:17:10.102Z,22.40
2019-05-01T16:19:40.345Z,22.10
2019-05-01T16:22:10.644Z,21.40
2019-05-01T16:24:40.926Z,21.30
2019-05-01T16:27:11.115Z,21.00
2019-05-01T16:29:41.353Z,21.00
2019-05-01T16:32:11.708Z,21.30
2019-05-01T16:34:44.373Z,21.10
2019-05-01T16:37:31.779Z,20.80
2019-05-01T16:40:12.940Z,20.50
2019-05-01T16:42:43.171Z,20.10
2019-05-01T16:45:13.777Z,19.80
2019-05-01T16:47:43.987Z,19.50
2019-05-01T16:50:14.183Z,19.30
2019-05-01T16:52:44.462Z,18.70
2019-05-01T16:55:14.661Z,18.60
2019-05-01T16:57:44.875Z,18.40
2019-05-01T17:00:15.063Z,18.00
2019-05-01T17:02:46.989Z,18.00
2019-05-01T17:05:24.767Z,18.00
2019-05-01T17:08:09.758Z,17.70
2019-05-01T17:10:41.635Z,17.50
2019-05-01T17:13:11.877Z,17.60
2019-05-01T17:15:43.308Z,17.40
2019-05-01T17:18:14.030Z,17.50
2019-05-01T17:20:44.043Z,17.50
2019-05-01T17:23:14.232Z,17.50
2019-05-01T17:25:45.536Z,17.30
2019-05-01T17:28:15.049Z,17.50
2019-05-01T17:30:49.742Z,17.70
2019-05-01T17:33:21.709Z,18.10
2019-05-01T17:36:03.751Z,17.90
2019-05-01T17:38:34.403Z,17.90
2019-05-01T17:41:04.804Z,17.80
2019-05-01T17:43:34.991Z,17.90
2019-05-01T17:46:05.951Z,17.90
2019-05-01T17:48:37.086Z,17.90
2019-05-01T17:51:42.403Z,18.00
2019-05-01T17:54:09.914Z,17.90
2019-05-01T17:56:40.138Z,17.70
2019-05-01T17:59:10.335Z,17.40
2019-05-01T18:01:58.472Z,17.00
2019-05-01T18:04:30.306Z,16.80
2019-05-01T18:07:38.112Z,16.60
2019-05-01T18:10:08.587Z,16.60
2019-05-01T18:12:38.829Z,16.70
2019-05-01T18:15:09.026Z,16.60
2019-05-01T18:17:44.177Z,16.50
2019-05-01T18:20:14.385Z,16.40
2019-05-01T18:23:08.353Z,16.30
2019-05-01T18:25:57.402Z,16.30
2019-05-01T18:28:34.834Z,16.00
2019-05-01T18:31:06.707Z,16.00
2019-05-01T18:33:36.921Z,15.90
2019-05-01T18:36:07.506Z,15.90
2019-05-01T18:38:53.578Z,15.80
2019-05-01T18:41:28.135Z,15.60
2019-05-01T18:43:58.541Z,15.60
2019-05-01T18:46:28.779Z,15.50
2019-05-01T18:48:58.997Z,15.50
2019-05-01T18:51:29.206Z,15.40
2019-05-01T18:53:59.442Z,15.30
2019-05-01T18:56:29.729Z,15.20
2019-05-01T18:59:00.275Z,15.20
2019-05-01T19:01:30.558Z,15.10
2019-05-01T19:04:00.879Z,15.10
2019-05-01T19:06:40.930Z,14.90
2019-05-01T19:09:14.754Z,14.90
2019-05-01T19:11:41.127Z,14.70
2019-05-01T19:14:11.889Z,14.60
2019-05-01T19:16:45.270Z,14.50
2019-05-01T19:19:13.813Z,14.50
2019-05-01T19:21:46.495Z,14.50
2019-05-01T19:24:16.794Z,14.50
2019-05-01T19:26:47.101Z,14.40
2019-05-01T19:29:17.323Z,14.30
2019-05-01T19:31:47.551Z,14.20
2019-05-01T19:34:17.807Z,14.20
2019-05-01T19:36:48.200Z,14.10
2019-05-01T19:39:20.097Z,14.10
2019-05-01T19:41:51.106Z,14.10
2019-05-01T19:44:22.225Z,14.00
2019-05-01T19:46:52.635Z,13.90
2019-05-01T19:49:24.631Z,13.80
2019-05-01T19:51:55.520Z,13.80
2019-05-01T19:54:27.861Z,13.70
2019-05-01T19:56:58.880Z,13.70
2019-05-01T19:59:29.086Z,13.60
2019-05-01T20:01:59.371Z,13.50
2019-05-01T20:04:29.679Z,13.50
2019-05-01T20:07:00.166Z,13.40
2019-05-01T20:09:30.896Z,13.40
2019-05-01T20:12:01.699Z,13.40
2019-05-01T20:14:32.758Z,13.30
2019-05-01T20:17:04.808Z,13.30
2019-05-01T20:19:35.291Z,13.10
2019-05-01T20:22:05.952Z,13.20
2019-05-01T20:24:39.915Z,13.20
2019-05-01T20:27:08.211Z,13.10
2019-05-01T20:29:38.469Z,12.90
2019-05-01T20:32:08.772Z,12.90
2019-05-01T20:34:38.965Z,12.80
2019-05-01T20:37:09.278Z,12.90
2019-05-01T20:39:39.607Z,12.70
2019-05-01T20:42:09.903Z,12.70
2019-05-01T20:44:40.396Z,12.60
2019-05-01T20:47:10.768Z,12.40
2019-05-01T20:49:41.463Z,12.50
2019-05-01T20:52:13.802Z,12.40
2019-05-01T20:54:44.001Z,12.50
2019-05-01T20:57:21.021Z,12.50
2019-05-01T20:59:48.420Z,12.50
2019-05-01T21:02:19.094Z,12.40
2019-05-01T21:04:51.070Z,12.50
2019-05-01T21:07:25.875Z,12.50
2019-05-01T21:09:59.206Z,12.50
2019-05-01T21:12:29.581Z,12.40
2019-05-01T21:14:59.842Z,12.30
2019-05-01T21:17:30.522Z,12.30
2019-05-01T21:20:00.788Z,12.20
2019-05-01T21:22:31.065Z,12.10
2019-05-01T21:25:01.256Z,12.10
2019-05-01T21:27:33.382Z,12.10
2019-05-01T21:30:06.538Z,12.00
2019-05-01T21:32:36.837Z,12.10
2019-05-01T21:35:07.025Z,12.00
2019-05-01T21:37:37.252Z,11.80
2019-05-01T21:40:07.525Z,11.80
2019-05-01T21:42:37.750Z,11.70
2019-05-01T21:45:07.951Z,11.60
2019-05-01T21:47:38.214Z,11.70
2019-05-01T21:50:08.407Z,11.70
2019-05-01T21:52:38.656Z,11.70
2019-05-01T21:55:09.179Z,11.70
2019-05-01T21:57:40.790Z,11.60
2019-05-01T22:00:11.306Z,11.70
2019-05-01T22:02:46.393Z,11.70
2019-05-01T22:05:15.079Z,11.50
2019-05-01T22:07:45.300Z,11.60
2019-05-01T22:10:15.495Z,11.50
2019-05-01T22:12:49.020Z,11.40
2019-05-01T22:15:42.077Z,11.50
2019-05-01T22:18:18.125Z,11.30
2019-05-01T22:21:08.255Z,11.40
2019-05-01T22:23:43.030Z,11.30
2019-05-01T22:26:15.233Z,11.10
2019-05-01T22:28:50.265Z,11.10
2019-05-01T22:31:21.667Z,11.10
2019-05-01T22:33:58.465Z,11.10
2019-05-01T22:36:28.756Z,11.10
2019-05-01T22:39:42.955Z,11.10
2019-05-01T22:42:13.214Z,11.10
2019-05-01T22:44:43.438Z,11.00
2019-05-01T22:47:15.071Z,11.00
2019-05-01T22:49:45.622Z,10.90
2019-05-01T22:52:15.822Z,10.80
2019-05-01T22:55:40.995Z,10.80
2019-05-01T22:58:11.201Z,10.80
2019-05-01T23:00:43.152Z,10.70
2019-05-01T23:03:15.002Z,10.70
2019-05-01T23:05:45.303Z,10.60
2019-05-01T23:08:15.509Z,10.60
2019-05-01T23:10:46.945Z,10.60
2019-05-01T23:13:17.708Z,10.60
2019-05-01T23:15:51.505Z,10.50
2019-05-01T23:18:19.851Z,10.50
2019-05-01T23:20:50.119Z,10.50
2019-05-01T23:23:20.837Z,10.50
2019-05-01T23:25:51.633Z,10.50
2019-05-01T23:28:21.994Z,10.40
2019-05-01T23:30:52.227Z,10.40
2019-05-01T23:33:22.498Z,10.40
2019-05-01T23:35:52.703Z,10.40
2019-05-01T23:38:23.035Z,10.40
2019-05-01T23:40:55.473Z,10.40
2019-05-01T23:43:28.165Z,10.40
2019-05-01T23:45:59.291Z,10.30
2019-05-01T23:48:29.526Z,10.30
2019-05-01T23:50:59.874Z,10.30
2019-05-01T23:53:30.261Z,10.30
2019-05-01T23:56:02.083Z,10.10
2019-05-01T23:58:32.614Z,10.00
